Ruby, Alaska
Current Conditions -  °F | °C
As of 1:56 PM on Tuesday 27 Jan 2015 (Local Time) from PARY Reporting Station
Clear Clear  
Wind Chill: -24°   Ceiling: Unl
Heat Index: -24°   Visibility: 10mi
Dew Point: -31°   Wind: 0mph
Humidity: 70%   Direction: NA
Pressure: 30.18"   Gusts: NA
Location:  64.74°N, 155.49°W
Report Text: PARY 272256Z AUTO 00000KT 10SM CLR M31/M35 A3018 RMK AO2 TSNO T13111350 SLP253 $
Loading
Personal Weather Stations






























Interactive Weather Map New forecast layout! Learn more

10-Day Weather Forecast

Advertisements
Track Severe Weather on mobile